NCAR-RAP Real-Time Weather Data

Output produced by METARs form (12 May 2021  10:45 UTC)
found at http://weather.rap.ucar.edu/surface/
 
KSPD 120956Z AUTO 00000KT 05/04 A3033 RMK AO1 SLP261 T00500039
KSPD 120856Z AUTO 00000KT 05/03 A3033 RMK AO1 SLP263 T00500033 55004
KSPD 120756Z AUTO 12003KT 05/04 A3033 RMK AO1 SLP263 T00500039
KSPD 120656Z AUTO 07004KT 05/04 A3034 RMK AO1 SLP268 T00500039 400670039
KSPD 120556Z AUTO 08003KT 05/04 A3035 RMK AO1 SLP269 P0001 60002 T00500039 10056 20050 51009
KSPD 120456Z AUTO 07004KT 05/04 A3034 RMK AO1 SLP267 T00500039
KSPD 120356Z AUTO 10003KT 05/04 A3033 RMK AO1 SLP264 P0001 T00500039
KSPD 120256Z AUTO 00000KT 06/04 A3032 RMK AO1 SLP258 T00560039 53025
KSPD 120156Z AUTO 04004KT 06/03 A3029 RMK AO1 SLP247 T00560033
KSPD 120056Z AUTO 09008KT 05/04 A3024 RMK AO1 SLP233 T00500039
KSPD 112356Z AUTO 09010KT 05/04 A3023 RMK AO1 SLP229 T00500039 10061 20044 53013
KSPD 112256Z AUTO 09012KT 06/04 A3021 RMK AO1 SLP217 T00560039
KSPD 112156Z AUTO 10010KT 06/04 A3020 RMK AO1 SLP214 T00560039
KSPD 112056Z AUTO 10012KT 05/04 A3019 RMK AO1 SLP210 T00500039 56010